Time;durP1;ratioP1;P1;durP2;ratioP2;P2;SDS_P1;SDS_P2;PMS_P1;PMS_P2;Temp;Humidity;BMP_temperature;BMP_pressure;BME280_temperature;BME280_humidity;BME280_pressure;Samples;Min_cycle;Max_cycle;Signal;HPM_P1;HPM_P2
2023/04/02 00:02:21;;;;;;;1.50;1.40;;;6.50;99.90;6.30;99801.00;;;;4934210;28;94222;-72
2023/04/02 00:05:24;;;;;;;0.70;0.70;;;6.50;99.90;6.30;99820.00;;;;4927854;28;101794;-73
2023/04/02 00:07:52;;;;;;;1.83;0.97;;;6.60;99.90;6.30;99806.00;;;;4914340;28;94398;-70
2023/04/02 00:10:38;;;;;;;1.33;1.03;;;6.40;99.90;6.20;99826.00;;;;4929448;28;101468;-71
2023/04/02 00:13:16;;;;;;;1.47;1.13;;;6.40;99.90;6.20;99835.00;;;;4914603;28;93450;-71
2023/04/02 00:15:46;;;;;;;2.63;1.40;;;6.40;99.90;6.10;99839.00;;;;4943182;28;122041;-71
2023/04/02 00:18:16;;;;;;;1.87;1.33;;;6.80;99.90;6.10;99834.00;;;;4945028;28;93058;-69
2023/04/02 00:20:53;;;;;;;2.00;1.70;;;6.90;99.90;6.10;99836.00;;;;4942127;28;96313;-69
2023/04/02 00:23:19;;;;;;;1.20;1.10;;;6.90;99.90;6.00;99839.00;;;;4929365;28;94058;-72
2023/04/02 00:25:46;;;;;;;3.17;1.00;;;6.20;99.90;6.00;99854.00;;;;4934010;28;93938;-68
2023/04/02 00:28:16;;;;;;;1.57;0.80;;;6.20;99.90;6.00;99855.00;;;;4933399;28;93666;-68
2023/04/02 00:30:53;;;;;;;1.03;0.80;;;6.10;99.90;5.90;99843.00;;;;4932227;28;93395;-68
2023/04/02 00:33:26;;;;;;;1.80;0.80;;;6.10;99.90;5.90;99856.00;;;;4945577;28;98405;-68
2023/04/02 00:35:53;;;;;;;0.57;0.53;;;6.10;99.90;5.80;99860.00;;;;4931130;28;115470;-66
2023/04/02 00:38:29;;;;;;;2.30;0.87;;;6.00;99.90;5.80;99856.00;;;;4931628;28;93005;-67
2023/04/02 00:41:00;;;;;;;1.10;0.97;;;6.00;99.90;5.70;99859.00;;;;4931844;28;92099;-68
2023/04/02 00:43:30;;;;;;;1.10;1.03;;;6.50;99.90;5.70;99857.00;;;;4911433;28;93455;-67
2023/04/02 00:46:00;;;;;;;3.93;0.87;;;6.30;99.90;5.60;99861.00;;;;4935389;28;99038;-67
2023/04/02 00:48:31;;;;;;;2.77;1.03;;;5.90;99.90;5.60;99872.00;;;;4935129;28;93877;-66
2023/04/02 00:51:24;;;;;;;1.63;1.03;;;6.40;99.90;5.60;99886.00;;;;4934750;28;102413;-65
2023/04/02 00:53:53;;;;;;;1.37;0.90;;;5.70;99.90;5.50;99879.00;;;;4948872;28;93526;-66
2023/04/02 00:56:27;;;;;;;1.03;0.77;;;6.30;99.90;5.50;99892.00;;;;4932808;28;93029;-66
2023/04/02 00:58:55;;;;;;;2.20;0.77;;;5.70;99.90;5.50;99889.00;;;;4951140;28;93112;-67
2023/04/02 01:01:33;;;;;;;0.67;0.67;;;5.60;99.90;5.50;99892.00;;;;4932852;28;93030;-66
2023/04/02 01:04:00;;;;;;;1.10;1.03;;;5.30;99.90;5.50;99890.00;;;;4932770;28;94136;-65
2023/04/02 01:06:36;;;;;;;1.00;1.00;;;6.10;99.90;5.50;99894.00;;;;4933411;28;94413;-66
2023/04/02 01:09:25;;;;;;;1.30;1.20;;;6.30;99.90;5.50;99894.00;;;;4947838;28;93436;-67
2023/04/02 01:12:15;;;;;;;1.00;0.90;;;5.70;99.90;5.40;99905.00;;;;4945903;28;93278;-67
2023/04/02 01:14:48;;;;;;;0.90;0.90;;;5.70;99.90;5.40;99906.00;;;;4932557;28;95090;-67
2023/04/02 01:17:47;;;;;;;1.87;1.30;;;5.50;99.90;5.30;99902.00;;;;4931919;28;105575;-68
2023/04/02 01:20:57;;;;;;;0.83;0.83;;;5.50;99.90;5.30;99911.00;;;;4916011;28;92853;-67
2023/04/02 01:24:01;;;;;;;1.50;1.30;;;5.50;99.90;5.20;99918.00;;;;4917353;28;97489;-70
2023/04/02 01:26:56;;;;;;;1.30;0.70;;;5.40;99.90;5.20;99930.00;;;;4914485;28;93648;-67
2023/04/02 01:29:26;;;;;;;0.57;0.57;;;5.40;99.90;5.20;99928.00;;;;4943793;28;93143;-70
2023/04/02 01:31:59;;;;;;;2.30;1.10;;;5.30;99.90;5.20;99935.00;;;;4915869;28;93033;-69
2023/04/02 01:34:27;;;;;;;2.60;0.70;;;5.30;99.90;5.20;99943.00;;;;4944523;28;92365;-68
2023/04/02 01:37:15;;;;;;;0.93;0.83;;;5.40;99.90;5.20;99952.00;;;;4943682;28;94055;-68
2023/04/02 01:40:32;;;;;;;1.90;1.37;;;5.40;99.90;5.10;99957.00;;;;4932054;28;94754;-65
2023/04/02 01:43:26;;;;;;;0.90;0.70;;;5.40;99.90;5.10;99958.00;;;;4886305;28;94189;-67
2023/04/02 01:45:51;;;;;;;1.80;1.10;;;5.30;99.90;5.10;99962.00;;;;4929847;28;92933;-66
2023/04/02 01:48:23;;;;;;;1.67;1.10;;;5.30;99.90;5.20;99962.00;;;;4928560;28;121650;-66
2023/04/02 01:50:53;;;;;;;1.20;1.10;;;5.30;99.90;5.20;99970.00;;;;4932799;28;93657;-67
2023/04/02 01:53:22;;;;;;;1.17;1.07;;;5.30;99.90;5.20;99976.00;;;;4942917;28;93309;-66
2023/04/02 01:55:59;;;;;;;2.13;1.70;;;5.30;99.90;5.20;99982.00;;;;4911848;28;93010;-71
2023/04/02 01:58:30;;;;;;;1.70;1.60;;;5.40;99.90;5.20;99992.00;;;;4931890;28;100248;-69
2023/04/02 02:01:02;;;;;;;2.00;1.90;;;5.70;99.90;5.20;99983.00;;;;4944989;28;92793;-68
2023/04/02 02:03:29;;;;;;;2.03;1.83;;;5.30;99.90;5.20;99997.00;;;;4926662;28;92827;-69
2023/04/02 02:05:56;;;;;;;2.40;2.20;;;5.30;99.90;5.10;99982.00;;;;4915882;28;92831;-69
2023/04/02 02:08:39;;;;;;;3.93;2.53;;;5.20;99.90;5.10;100001.00;;;;4933284;28;94597;-68
2023/04/02 02:11:09;;;;;;;2.60;2.10;;;5.30;99.90;5.00;100005.00;;;;4944423;28;93225;-66
2023/04/02 02:13:35;;;;;;;2.43;2.23;;;5.30;99.90;5.00;100015.00;;;;4946173;28;92896;-66
2023/04/02 02:16:03;;;;;;;4.83;1.83;;;5.80;99.90;5.00;100008.00;;;;4935081;28;93239;-65
2023/04/02 02:18:30;;;;;;;2.67;2.17;;;5.10;99.90;4.90;100007.00;;;;4914936;28;116680;-66
2023/04/02 02:20:58;;;;;;;3.00;1.87;;;5.00;99.90;4.90;100015.00;;;;4916411;28;93807;-67
2023/04/02 02:23:27;;;;;;;2.33;2.00;;;5.10;99.90;4.90;100021.00;;;;4931257;28;92889;-66
2023/04/02 02:25:54;;;;;;;3.90;2.50;;;5.10;99.90;4.90;100015.00;;;;4913256;28;92370;-66
2023/04/02 02:28:26;;;;;;;3.00;2.53;;;5.00;99.90;4.90;100011.00;;;;4932373;28;94098;-66
2023/04/02 02:31:01;;;;;;;3.70;3.40;;;5.00;99.90;4.90;100033.00;;;;4943530;28;93035;-66
2023/04/02 02:33:39;;;;;;;2.67;2.47;;;5.00;99.90;4.90;100041.00;;;;4931670;28;94237;-67
2023/04/02 02:36:36;;;;;;;4.30;3.20;;;5.60;99.90;4.90;100045.00;;;;4930554;28;93112;-67
2023/04/02 02:39:26;;;;;;;3.13;2.83;;;5.10;99.90;4.90;100051.00;;;;4914476;28;93287;-66
2023/04/02 02:42:16;;;;;;;3.00;2.63;;;5.10;99.90;4.80;100052.00;;;;4945153;28;93411;-66
2023/04/02 02:44:50;;;;;;;4.17;2.93;;;5.00;99.90;4.70;100049.00;;;;4946661;28;93103;-65
2023/04/02 02:47:25;;;;;;;3.10;2.60;;;5.00;99.90;4.70;100062.00;;;;4914347;28;107987;-66
2023/04/02 02:50:02;;;;;;;3.20;2.63;;;4.90;99.90;4.70;100060.00;;;;4932948;28;95210;-65
2023/04/02 02:52:34;;;;;;;5.70;3.03;;;4.90;99.90;4.70;100061.00;;;;4913192;28;112223;-65
2023/04/02 02:55:26;;;;;;;8.53;3.53;;;4.90;99.90;4.70;100067.00;;;;4932522;28;106572;-65
2023/04/02 02:58:10;;;;;;;6.17;4.13;;;4.90;99.90;4.60;100082.00;;;;4916591;28;93075;-65
2023/04/02 03:00:38;;;;;;;4.43;3.53;;;4.80;99.90;4.60;100080.00;;;;4944297;28;117257;-65
2023/04/02 03:03:13;;;;;;;5.47;3.43;;;5.60;99.90;4.60;100096.00;;;;4932598;28;94150;-65
2023/04/02 03:05:39;;;;;;;4.00;3.53;;;4.80;99.90;4.60;100097.00;;;;4930411;28;104390;-64
2023/04/02 03:08:13;;;;;;;2.60;2.03;;;4.80;99.90;4.50;100094.00;;;;4930989;28;109080;-65
2023/04/02 03:10:53;;;;;;;5.63;3.33;;;5.40;99.90;4.50;100093.00;;;;4941793;28;113850;-64
2023/04/02 03:13:31;;;;;;;3.23;2.93;;;4.70;99.90;4.40;100107.00;;;;4933163;28;108539;-64
2023/04/02 03:16:15;;;;;;;4.17;2.70;;;4.60;99.90;4.40;100102.00;;;;4930483;28;93495;-65
2023/04/02 03:19:23;;;;;;;3.37;3.10;;;4.60;99.90;4.30;100114.00;;;;4913491;28;92291;-65
2023/04/02 03:22:01;;;;;;;6.13;3.37;;;4.60;99.90;4.30;100109.00;;;;4929789;28;114251;-66
2023/04/02 03:24:48;;;;;;;3.43;2.90;;;4.50;99.90;4.30;100120.00;;;;4928356;28;93744;-66
2023/04/02 03:27:27;;;;;;;2.77;2.50;;;4.50;99.90;4.30;100130.00;;;;4942032;28;102926;-65
2023/04/02 03:30:29;;;;;;;3.67;2.50;;;4.50;99.90;4.30;100143.00;;;;4944192;28;93078;-66
2023/04/02 03:33:03;;;;;;;4.20;2.73;;;4.50;99.90;4.30;100144.00;;;;4929465;28;93105;-66
2023/04/02 03:36:19;;;;;;;4.73;3.07;;;4.50;99.90;4.20;100150.00;;;;4942906;28;101256;-67
2023/04/02 03:38:53;;;;;;;2.97;2.47;;;4.50;99.90;4.20;100150.00;;;;4920459;28;93472;-64
2023/04/02 03:41:23;;;;;;;2.50;1.93;;;4.40;99.90;4.20;100158.00;;;;4912549;28;94396;-65
2023/04/02 03:44:00;;;;;;;4.30;2.73;;;4.50;99.90;4.20;100165.00;;;;4944287;28;93949;-66
2023/04/02 03:46:45;;;;;;;4.77;2.17;;;4.10;99.90;4.20;100176.00;;;;4914033;28;92393;-65
2023/04/02 03:49:42;;;;;;;2.90;1.93;;;4.40;99.90;4.10;100174.00;;;;4941317;28;93346;-66
2023/04/02 03:52:19;;;;;;;3.20;2.20;;;4.40;99.90;4.20;100196.00;;;;4886088;28;103805;-66
2023/04/02 03:54:45;;;;;;;3.17;2.50;;;4.40;99.90;4.20;100190.00;;;;4910190;28;94349;-67
2023/04/02 03:57:25;;;;;;;3.57;2.63;;;4.40;99.90;4.10;100194.00;;;;4931036;28;94935;-66
2023/04/02 04:00:05;;;;;;;3.37;2.30;;;4.30;99.90;4.00;100196.00;;;;4914229;28;100612;-67
2023/04/02 04:02:48;;;;;;;4.70;2.67;;;4.30;99.90;4.00;100217.00;;;;4946469;28;92951;-67
2023/04/02 04:05:31;;;;;;;2.87;2.17;;;4.30;99.90;3.90;100210.00;;;;4914989;28;102523;-66
2023/04/02 04:08:05;;;;;;;7.70;3.17;;;4.20;99.90;3.90;100221.00;;;;4914706;28;116086;-67
2023/04/02 04:10:32;;;;;;;5.80;2.43;;;4.20;99.90;3.90;100231.00;;;;4931323;28;103554;-67
2023/04/02 04:13:10;;;;;;;1.97;1.80;;;4.10;99.90;3.90;100233.00;;;;4933724;28;92209;-68
2023/04/02 04:15:50;;;;;;;2.80;2.60;;;4.10;99.90;3.90;100235.00;;;;4946089;28;107668;-67
2023/04/02 04:18:23;;;;;;;3.23;2.17;;;4.10;99.90;3.90;100248.00;;;;4931487;28;94002;-67
2023/04/02 04:20:57;;;;;;;3.23;1.57;;;4.00;99.90;3.90;100255.00;;;;4914717;28;94087;-69
2023/04/02 04:23:34;;;;;;;3.60;2.37;;;4.90;99.90;3.80;100259.00;;;;4913226;28;93187;-68
2023/04/02 04:26:33;;;;;;;1.90;1.70;;;4.00;99.90;3.80;100262.00;;;;4934462;28;93733;-69
2023/04/02 04:29:23;;;;;;;1.63;1.50;;;4.10;99.90;3.80;100269.00;;;;4935899;28;92789;-68
2023/04/02 04:31:54;;;;;;;2.07;1.63;;;4.10;99.90;3.80;100282.00;;;;4917663;28;104266;-69
2023/04/02 04:34:45;;;;;;;3.40;2.60;;;4.00;99.90;3.80;100277.00;;;;4946076;28;92943;-67
2023/04/02 04:37:28;;;;;;;2.17;1.30;;;4.00;99.90;3.80;100296.00;;;;4932232;28;93091;-68
2023/04/02 04:40:10;;;;;;;3.90;2.20;;;4.00;99.90;3.80;100300.00;;;;4945207;28;93859;-66
2023/04/02 04:42:42;;;;;;;2.50;2.13;;;4.00;99.90;3.80;100305.00;;;;4913130;28;93038;-68
2023/04/02 04:45:39;;;;;;;3.13;1.77;;;3.60;99.90;3.80;100307.00;;;;4914359;28;107618;-66
2023/04/02 04:48:28;;;;;;;1.63;1.50;;;4.00;99.90;3.80;100321.00;;;;4947833;28;94209;-65
2023/04/02 04:51:23;;;;;;;4.20;1.30;;;3.90;99.90;3.80;100320.00;;;;4933253;28;116704;-66
2023/04/02 04:53:51;;;;;;;2.43;1.83;;;4.00;99.90;3.80;100331.00;;;;4916000;28;93066;-66
2023/04/02 04:56:27;;;;;;;2.47;1.80;;;4.00;99.90;3.80;100338.00;;;;4932288;28;101711;-67
2023/04/02 04:58:59;;;;;;;2.67;2.40;;;4.00;99.90;3.80;100333.00;;;;4943439;28;104004;-66
2023/04/02 05:02:07;;;;;;;2.40;1.33;;;4.00;99.90;3.70;100336.00;;;;4933712;28;94206;-66
2023/04/02 05:04:48;;;;;;;2.87;1.60;;;4.00;99.90;3.70;100346.00;;;;4913634;28;93347;-65
2023/04/02 05:07:20;;;;;;;1.20;1.10;;;4.00;99.90;3.80;100353.00;;;;4931645;28;92231;-64
2023/04/02 05:10:16;;;;;;;1.70;1.60;;;4.10;99.90;3.70;100349.00;;;;4931948;28;118273;-65
2023/04/02 05:12:59;;;;;;;2.87;1.73;;;3.20;99.90;3.80;100356.00;;;;4914257;28;109738;-65
2023/04/02 05:15:52;;;;;;;3.17;1.47;;;4.00;99.90;3.70;100357.00;;;;4930493;28;93892;-65
2023/04/02 05:18:43;;;;;;;3.37;1.20;;;4.00;99.90;3.80;100370.00;;;;4944975;28;92880;-64
2023/04/02 05:21:20;;;;;;;4.67;1.53;;;4.00;99.90;3.80;100372.00;;;;4945640;28;109333;-64
2023/04/02 05:24:17;;;;;;;1.10;1.00;;;4.00;99.90;3.80;100383.00;;;;4930700;28;114766;-67
2023/04/02 05:26:46;;;;;;;1.50;1.20;;;3.90;99.90;3.80;100385.00;;;;4930655;28;92761;-65
2023/04/02 05:29:24;;;;;;;1.30;1.20;;;4.00;99.90;3.80;100390.00;;;;4914703;28;108292;-65
2023/04/02 05:32:02;;;;;;;2.27;1.97;;;4.70;99.90;3.70;100405.00;;;;4946097;28;93117;-65
2023/04/02 05:34:35;;;;;;;1.50;1.10;;;4.00;99.90;3.80;100406.00;;;;4913213;28;113919;-65
2023/04/02 05:37:03;;;;;;;2.10;1.73;;;4.00;99.90;3.80;100406.00;;;;4945078;28;92970;-65
2023/04/02 05:39:28;;;;;;;2.47;1.83;;;4.00;99.90;3.70;100417.00;;;;4929687;28;92983;-65
2023/04/02 05:42:03;;;;;;;1.93;1.47;;;3.90;99.90;3.70;100417.00;;;;4932558;28;94253;-65
2023/04/02 05:44:33;;;;;;;2.30;1.23;;;3.90;99.90;3.70;100429.00;;;;4931265;28;94454;-65
2023/04/02 05:47:06;;;;;;;1.67;1.03;;;3.90;99.90;3.70;100420.00;;;;4937017;28;93019;-65
2023/04/02 05:50:08;;;;;;;1.73;1.03;;;3.90;99.90;3.70;100419.00;;;;4942562;28;103854;-64
2023/04/02 05:52:45;;;;;;;1.70;1.23;;;3.90;99.90;3.70;100427.00;;;;4944878;28;93180;-65
2023/04/02 05:55:11;;;;;;;0.87;0.87;;;3.80;99.90;3.70;100442.00;;;;4911998;28;115074;-68
2023/04/02 05:57:50;;;;;;;2.63;0.93;;;3.90;99.90;3.70;100453.00;;;;4931685;28;93102;-66
2023/04/02 06:01:00;;;;;;;3.57;2.30;;;3.90;99.90;3.70;100449.00;;;;4935393;28;92504;-66
2023/04/02 06:04:12;;;;;;;2.00;1.40;;;4.00;99.90;3.70;100460.00;;;;4925445;28;92930;-65
2023/04/02 06:06:41;;;;;;;2.33;2.10;;;4.00;99.90;3.80;100462.00;;;;4945846;28;92886;-66
2023/04/02 06:09:21;;;;;;;1.70;1.60;;;4.00;99.90;3.80;100463.00;;;;4931953;28;93733;-65
2023/04/02 06:11:58;;;;;;;1.73;1.50;;;4.00;99.90;3.90;100476.00;;;;4934066;28;93086;-66
2023/04/02 06:14:24;;;;;;;0.77;0.77;;;4.10;99.90;3.90;100474.00;;;;4913219;28;115437;-66
2023/04/02 06:16:50;;;;;;;2.43;1.43;;;4.00;99.90;3.90;100474.00;;;;4929274;28;92932;-66
2023/04/02 06:19:25;;;;;;;1.53;1.13;;;4.10;99.90;3.90;100489.00;;;;4940986;28;92917;-64
2023/04/02 06:21:58;;;;;;;2.57;1.43;;;4.10;99.90;4.00;100484.00;;;;4930309;28;93236;-66
2023/04/02 06:24:26;;;;;;;1.37;1.27;;;4.60;99.90;4.00;100489.00;;;;4942563;28;93208;-66
2023/04/02 06:27:02;;;;;;;1.23;0.73;;;4.20;99.90;4.00;100506.00;;;;4930823;28;123443;-66
2023/04/02 06:29:38;;;;;;;1.33;1.00;;;4.20;99.90;4.00;100514.00;;;;4930690;28;100017;-67
2023/04/02 06:32:07;;;;;;;2.00;1.17;;;5.00;99.90;4.00;100508.00;;;;4930037;28;93145;-65
2023/04/02 06:34:37;;;;;;;2.17;1.03;;;4.20;99.90;4.10;100511.00;;;;4927978;28;97418;-66
2023/04/02 06:37:22;;;;;;;2.37;1.63;;;4.20;99.90;4.10;100507.00;;;;4915324;28;93128;-66
2023/04/02 06:39:48;;;;;;;1.27;0.70;;;4.30;99.90;4.10;100521.00;;;;4916340;28;93360;-66
2023/04/02 06:42:29;;;;;;;2.70;1.57;;;4.30;99.90;4.10;100525.00;;;;4931212;28;92981;-64
2023/04/02 06:44:55;;;;;;;5.33;1.93;;;4.30;99.90;4.10;100530.00;;;;4915933;28;93609;-65
2023/04/02 06:47:41;;;;;;;7.17;1.47;;;4.30;99.90;4.10;100534.00;;;;4914442;28;93657;-66
2023/04/02 06:50:18;;;;;;;0.73;0.70;;;4.30;99.90;4.20;100533.00;;;;4913407;28;93225;-66
2023/04/02 06:52:51;;;;;;;1.10;0.80;;;4.30;99.90;4.20;100530.00;;;;4912566;28;100211;-65
2023/04/02 06:55:33;;;;;;;1.27;1.17;;;4.30;99.90;4.20;100562.00;;;;4912473;28;115563;-65
2023/04/02 06:57:59;;;;;;;2.23;1.40;;;4.40;99.90;4.20;100548.00;;;;4912443;28;93466;-65
2023/04/02 07:00:37;;;;;;;2.07;1.87;;;4.30;99.90;4.20;100550.00;;;;4928799;28;109963;-66
2023/04/02 07:03:14;;;;;;;1.20;1.10;;;4.50;99.90;4.30;100564.00;;;;4912403;28;92921;-66
2023/04/02 07:05:40;;;;;;;1.63;1.00;;;4.40;99.90;4.30;100563.00;;;;4914303;28;93385;-64
2023/04/02 07:08:06;;;;;;;2.40;1.20;;;4.40;99.90;4.30;100571.00;;;;4927397;28;122260;-64
2023/04/02 07:10:33;;;;;;;1.30;1.20;;;4.50;99.90;4.40;100579.00;;;;4928601;28;93116;-64
2023/04/02 07:13:01;;;;;;;1.40;0.90;;;4.50;99.90;4.40;100583.00;;;;4932991;28;96222;-64
2023/04/02 07:15:27;;;;;;;2.60;1.63;;;4.60;99.90;4.50;100570.00;;;;4930366;28;94517;-66
2023/04/02 07:17:56;;;;;;;5.10;1.37;;;4.60;99.90;4.40;100591.00;;;;4931529;28;92222;-64
2023/04/02 07:20:36;;;;;;;2.87;1.00;;;4.60;99.90;4.50;100594.00;;;;4929601;28;93084;-65
2023/04/02 07:23:02;;;;;;;4.00;1.63;;;4.70;99.90;4.50;100599.00;;;;4930248;28;92995;-66
2023/04/02 07:25:28;;;;;;;3.30;1.37;;;5.50;99.90;4.50;100598.00;;;;4927842;28;94390;-66
2023/04/02 07:27:54;;;;;;;1.30;1.07;;;4.70;99.90;4.50;100613.00;;;;4929449;28;98355;-65
2023/04/02 07:30:20;;;;;;;2.23;1.13;;;4.70;99.90;4.50;100619.00;;;;4911466;28;92976;-63
2023/04/02 07:32:46;;;;;;;2.50;1.50;;;4.70;99.90;4.50;100617.00;;;;4930679;28;106994;-65
2023/04/02 07:35:12;;;;;;;0.80;0.80;;;4.70;99.90;4.50;100621.00;;;;4926455;28;94243;-64
2023/04/02 07:37:38;;;;;;;1.40;1.27;;;4.70;99.90;4.40;100625.00;;;;4930270;28;93540;-64
2023/04/02 07:40:19;;;;;;;1.30;1.20;;;4.50;99.90;4.40;100627.00;;;;4928944;28;102123;-64
2023/04/02 07:42:45;;;;;;;2.67;1.40;;;4.70;99.90;4.40;100633.00;;;;4944679;28;92650;-65
2023/04/02 07:45:11;;;;;;;1.17;0.83;;;4.00;99.90;4.40;100635.00;;;;4927068;28;96786;-64
2023/04/02 07:47:38;;;;;;;1.50;1.33;;;4.60;99.90;4.40;100633.00;;;;4929303;28;93431;-64
2023/04/02 07:50:07;;;;;;;1.40;1.30;;;4.60;99.90;4.40;100638.00;;;;4930432;28;93799;-64
2023/04/02 07:52:34;;;;;;;1.73;1.40;;;4.60;99.90;4.40;100649.00;;;;4930304;28;92935;-62
2023/04/02 07:55:00;;;;;;;1.93;1.30;;;4.50;99.90;4.40;100647.00;;;;4931160;28;94139;-63
2023/04/02 07:57:26;;;;;;;1.63;1.53;;;4.50;99.90;4.40;100655.00;;;;4929659;28;93870;-64
2023/04/02 07:59:55;;;;;;;2.37;1.63;;;4.50;99.90;4.30;100659.00;;;;4927152;28;93154;-64
2023/04/02 08:02:22;;;;;;;1.80;1.00;;;4.60;99.90;4.40;100667.00;;;;4930438;28;93202;-66
2023/04/02 08:04:50;;;;;;;2.27;1.87;;;4.60;99.90;4.40;100670.00;;;;4928445;28;93973;-64
2023/04/02 08:07:16;;;;;;;1.77;1.60;;;4.50;99.90;4.40;100690.00;;;;4929643;28;93142;-63
2023/04/02 08:09:42;;;;;;;1.00;0.77;;;4.50;99.90;4.40;100684.00;;;;4928436;28;92937;-63
2023/04/02 08:12:12;;;;;;;1.77;1.57;;;4.60;99.90;4.40;100690.00;;;;4931907;28;93031;-65
2023/04/02 08:14:38;;;;;;;1.83;1.40;;;4.60;99.90;4.40;100705.00;;;;4943873;28;94354;-64
2023/04/02 08:17:04;;;;;;;1.50;1.23;;;4.60;99.90;4.40;100693.00;;;;4927281;28;116633;-64
2023/04/02 08:19:30;;;;;;;2.30;1.13;;;4.60;99.90;4.40;100696.00;;;;4931169;28;92979;-64
2023/04/02 08:21:56;;;;;;;1.60;1.17;;;4.50;99.90;4.30;100696.00;;;;4927493;28;93249;-64
2023/04/02 08:24:22;;;;;;;1.10;1.00;;;4.50;99.90;4.30;100706.00;;;;4928029;28;94017;-63
2023/04/02 08:26:50;;;;;;;1.00;0.90;;;5.30;99.90;4.30;100709.00;;;;4943403;28;93123;-64
2023/04/02 08:29:15;;;;;;;2.37;1.20;;;4.50;99.90;4.30;100709.00;;;;4928996;28;94407;-64
2023/04/02 08:31:41;;;;;;;1.23;0.80;;;4.60;99.90;4.30;100711.00;;;;4930704;28;92329;-63
2023/04/02 08:34:07;;;;;;;1.27;1.03;;;4.50;99.90;4.40;100709.00;;;;4928951;28;122610;-65
2023/04/02 08:36:36;;;;;;;1.03;1.00;;;4.50;99.90;4.40;100726.00;;;;4930941;28;93171;-65
2023/04/02 08:39:04;;;;;;;1.13;0.80;;;4.90;99.90;4.40;100714.00;;;;4930502;28;93798;-65
2023/04/02 08:41:44;;;;;;;1.33;1.00;;;4.90;99.90;4.40;100720.00;;;;4915243;28;98318;-65
2023/04/02 08:44:20;;;;;;;1.10;1.00;;;4.60;99.90;4.40;100732.00;;;;4942189;28;93438;-65
2023/04/02 08:47:07;;;;;;;1.67;1.10;;;4.70;99.90;4.40;100729.00;;;;4914920;28;115176;-63
2023/04/02 08:49:43;;;;;;;1.93;1.33;;;4.60;99.90;4.40;100746.00;;;;4931959;28;92995;-64
2023/04/02 08:52:29;;;;;;;1.10;0.90;;;4.60;99.90;4.50;100742.00;;;;4909009;28;99234;-65
2023/04/02 08:54:56;;;;;;;2.10;1.23;;;4.60;99.90;4.50;100739.00;;;;4932406;28;93828;-64
2023/04/02 08:57:53;;;;;;;1.00;0.63;;;4.60;99.90;4.50;100746.00;;;;4933121;28;93058;-64
2023/04/02 09:00:38;;;;;;;1.37;1.07;;;4.70;99.90;4.50;100748.00;;;;4916098;28;93250;-66
2023/04/02 09:03:48;;;;;;;2.93;1.70;;;4.70;99.90;4.60;100757.00;;;;4917629;28;92970;-66
2023/04/02 09:06:18;;;;;;;1.60;1.50;;;4.70;99.90;4.60;100760.00;;;;4915472;28;95345;-65
2023/04/02 09:08:47;;;;;;;1.53;1.40;;;4.90;99.90;4.70;100754.00;;;;4932816;28;94664;-66
2023/04/02 09:11:40;;;;;;;3.60;1.23;;;4.70;99.90;4.70;100776.00;;;;4933520;28;92845;-66
2023/04/02 09:14:17;;;;;;;1.00;0.87;;;5.50;99.90;4.80;100764.00;;;;4931986;28;92802;-65
2023/04/02 09:16:48;;;;;;;2.13;1.10;;;4.90;99.90;4.90;100773.00;;;;4929231;28;93985;-66
2023/04/02 09:19:37;;;;;;;1.10;1.00;;;5.00;99.90;5.00;100784.00;;;;4913859;28;94431;-64
2023/04/02 09:22:07;;;;;;;1.23;1.10;;;5.70;99.90;5.10;100773.00;;;;4941825;28;102823;-65
2023/04/02 09:24:34;;;;;;;1.47;1.07;;;5.20;99.90;5.20;100790.00;;;;4915450;28;92502;-65
2023/04/02 09:27:00;;;;;;;1.40;1.30;;;5.20;99.90;5.30;100797.00;;;;4928752;28;107617;-64
2023/04/02 09:29:43;;;;;;;0.80;0.77;;;5.20;99.90;5.30;100790.00;;;;4929050;28;93883;-65
2023/04/02 09:32:32;;;;;;;1.27;0.93;;;5.30;99.90;5.30;100803.00;;;;4932061;28;93816;-64
2023/04/02 09:35:11;;;;;;;1.20;0.83;;;5.40;99.90;5.30;100806.00;;;;4943127;28;93067;-65
2023/04/02 09:37:39;;;;;;;1.20;1.07;;;5.50;99.90;5.40;100806.00;;;;4931129;28;94139;-65
2023/04/02 09:40:28;;;;;;;3.27;0.70;;;5.50;99.90;5.40;100814.00;;;;4930191;28;93617;-65
2023/04/02 09:43:17;;;;;;;1.03;0.60;;;5.60;99.90;5.40;100822.00;;;;4931557;28;93801;-64
2023/04/02 09:46:03;;;;;;;1.17;0.70;;;5.60;99.90;5.50;100825.00;;;;4932411;28;92992;-64
2023/04/02 09:48:30;;;;;;;1.30;1.20;;;5.60;99.90;5.50;100824.00;;;;4933102;28;94301;-64
2023/04/02 09:51:15;;;;;;;1.10;0.83;;;5.70;99.90;5.50;100831.00;;;;4927425;28;93680;-65
2023/04/02 09:53:48;;;;;;;1.37;1.00;;;5.60;99.90;5.60;100834.00;;;;4933788;28;92894;-65
2023/04/02 09:56:20;;;;;;;0.50;0.50;;;5.70;99.90;5.70;100848.00;;;;4930779;28;93031;-65
2023/04/02 09:59:12;;;;;;;1.83;1.03;;;5.80;99.90;5.70;100848.00;;;;4929298;28;94737;-65
2023/04/02 10:01:40;;;;;;;2.23;1.00;;;5.90;99.90;5.80;100848.00;;;;4930132;28;107548;-67
2023/04/02 10:04:38;;;;;;;1.80;1.10;;;6.00;99.90;5.90;100852.00;;;;4944593;28;93036;-66
2023/04/02 10:07:05;;;;;;;4.63;1.20;;;6.10;99.90;6.00;100854.00;;;;4944996;28;93320;-66
2023/04/02 10:09:36;;;;;;;0.77;0.77;;;6.00;99.90;6.10;100855.00;;;;4929169;28;94394;-64
2023/04/02 10:12:06;;;;;;;1.60;0.90;;;6.40;99.90;6.10;100851.00;;;;4930972;28;112140;-64
2023/04/02 10:14:41;;;;;;;2.10;1.73;;;6.20;99.90;6.20;100859.00;;;;4929037;28;97679;-63
2023/04/02 10:17:26;;;;;;;1.07;0.97;;;6.20;99.90;6.20;100853.00;;;;4931661;28;92009;-63
2023/04/02 10:20:05;;;;;;;3.90;0.97;;;6.30;99.90;6.20;100869.00;;;;4942642;28;113298;-65
2023/04/02 10:22:31;;;;;;;2.47;1.53;;;7.00;99.90;6.30;100865.00;;;;4913027;28;93739;-65
2023/04/02 10:25:00;;;;;;;1.40;1.00;;;6.30;99.90;6.30;100865.00;;;;4929067;28;98245;-63
2023/04/02 10:27:37;;;;;;;2.87;0.97;;;6.40;99.90;6.30;100872.00;;;;4928939;28;108394;-65
2023/04/02 10:30:30;;;;;;;0.73;0.60;;;6.40;99.90;6.40;100880.00;;;;4932259;28;93196;-65
2023/04/02 10:33:07;;;;;;;3.00;1.43;;;6.50;99.90;6.40;100875.00;;;;4929507;28;92993;-65
2023/04/02 10:36:06;;;;;;;1.67;1.27;;;6.60;99.90;6.50;100890.00;;;;4933115;28;93097;-64
2023/04/02 10:39:01;;;;;;;1.47;1.07;;;6.60;99.90;6.50;100887.00;;;;4932893;28;93060;-63
2023/04/02 10:41:33;;;;;;;2.70;1.40;;;6.60;99.90;6.60;100897.00;;;;4944251;28;93976;-64
2023/04/02 10:44:25;;;;;;;2.70;0.97;;;7.10;99.90;6.50;100898.00;;;;4942431;28;93191;-65
2023/04/02 10:47:31;;;;;;;2.20;1.30;;;6.70;99.90;6.60;100892.00;;;;4931367;28;93194;-64
2023/04/02 10:50:17;;;;;;;1.53;1.00;;;6.70;99.90;6.60;100901.00;;;;4935227;28;93089;-64
2023/04/02 10:53:13;;;;;;;0.60;0.60;;;6.70;99.90;6.60;100911.00;;;;4911573;28;117320;-66
2023/04/02 10:55:44;;;;;;;0.83;0.83;;;6.70;99.90;6.70;100918.00;;;;4921845;28;94317;-65
2023/04/02 10:58:26;;;;;;;1.33;0.70;;;6.80;99.90;6.70;100912.00;;;;4929028;28;92918;-65
2023/04/02 11:01:00;;;;;;;1.63;1.20;;;6.80;99.90;6.70;100916.00;;;;4944384;28;93183;-64
2023/04/02 11:03:35;;;;;;;3.07;0.83;;;6.80;99.90;6.80;100925.00;;;;4943316;28;93811;-65
2023/04/02 11:06:21;;;;;;;0.70;0.60;;;6.80;99.90;6.80;100930.00;;;;4909594;28;93863;-64
2023/04/02 11:08:51;;;;;;;1.60;1.00;;;6.90;99.90;6.90;100921.00;;;;4927427;28;103490;-64
2023/04/02 11:11:26;;;;;;;1.67;1.07;;;7.10;99.90;6.90;100942.00;;;;4940027;28;92331;-65
2023/04/02 11:14:20;;;;;;;0.57;0.53;;;7.00;99.90;7.00;100948.00;;;;4909938;28;93588;-66
2023/04/02 11:16:49;;;;;;;1.47;0.70;;;7.10;99.90;7.10;100944.00;;;;4919123;28;103606;-65
2023/04/02 11:19:15;;;;;;;2.23;1.00;;;7.10;99.90;7.20;100949.00;;;;4926471;28;95568;-66
2023/04/02 11:21:51;;;;;;;1.53;0.53;;;7.20;99.90;7.20;100955.00;;;;4927338;28;93144;-65
2023/04/02 11:24:31;;;;;;;0.43;0.37;;;7.30;99.90;7.30;100952.00;;;;4923536;28;93445;-66
2023/04/02 11:27:10;;;;;;;1.60;0.90;;;7.40;99.90;7.30;100949.00;;;;4937664;28;95487;-65
2023/04/02 11:29:54;;;;;;;1.13;0.60;;;7.30;99.90;7.30;100960.00;;;;4926898;28;92828;-66
2023/04/02 11:32:30;;;;;;;1.13;0.90;;;7.40;99.90;7.30;100958.00;;;;4909148;28;101645;-64
2023/04/02 11:35:00;;;;;;;3.43;0.77;;;7.40;99.90;7.30;100976.00;;;;4926538;28;94079;-65
2023/04/02 11:37:36;;;;;;;2.30;0.73;;;7.40;99.90;7.30;100975.00;;;;4910451;28;93623;-64
2023/04/02 11:40:10;;;;;;;1.60;0.50;;;7.40;99.90;7.20;100966.00;;;;4911494;28;93179;-65
2023/04/02 11:42:39;;;;;;;1.13;1.03;;;7.40;99.90;7.20;100978.00;;;;4928981;28;92969;-64
2023/04/02 11:47:58;;;;;;;1.33;0.83;;;7.40;99.90;7.20;100978.00;;;;4923828;28;94067;-66
2023/04/02 11:50:32;;;;;;;1.53;0.60;;;7.30;99.90;7.20;100987.00;;;;4924077;28;111004;-65